createdAt,value
2019-01-29T00:00:57.120Z,97.64
2019-01-29T00:03:23.064Z,97.64
2019-01-29T00:05:48.883Z,97.80
2019-01-29T00:08:14.801Z,97.70
2019-01-29T00:10:43.420Z,97.83
2019-01-29T00:13:09.652Z,97.23
2019-01-29T00:15:38.260Z,97.26
2019-01-29T00:18:04.397Z,97.45
2019-01-29T00:20:33.480Z,97.72
2019-01-29T00:22:59.301Z,97.79
2019-01-29T00:25:25.234Z,97.85
2019-01-29T00:27:51.199Z,98.05
2019-01-29T00:30:17.166Z,97.96
2019-01-29T00:32:45.878Z,97.90
2019-01-29T00:35:11.798Z,98.08
2019-01-29T00:37:40.899Z,97.40
2019-01-29T00:40:11.480Z,97.08
2019-01-29T00:42:37.410Z,97.19
2019-01-29T00:45:06.260Z,96.99
2019-01-29T00:47:32.130Z,97.18
2019-01-29T00:49:58.086Z,96.92
2019-01-29T00:52:24.168Z,96.85
2019-01-29T00:54:50.370Z,96.78
2019-01-29T00:57:19.506Z,96.38
2019-01-29T00:59:45.343Z,96.36
2019-01-29T01:02:11.139Z,96.50
2019-01-29T01:04:36.975Z,96.61
2019-01-29T01:07:03.126Z,96.68
2019-01-29T01:09:29.086Z,96.87
2019-01-29T01:11:55.199Z,96.87
2019-01-29T01:14:23.880Z,96.91
2019-01-29T01:16:49.728Z,96.91
2019-01-29T01:19:18.270Z,97.27
2019-01-29T01:21:44.086Z,97.69
2019-01-29T01:24:13.806Z,97.69
2019-01-29T01:26:39.956Z,97.53
2019-01-29T01:29:08.845Z,97.95
2019-01-29T01:31:34.678Z,97.95
2019-01-29T01:34:03.537Z,97.49
2019-01-29T01:36:29.354Z,97.63
2019-01-29T01:38:55.206Z,97.76
2019-01-29T01:41:21.032Z,97.98
2019-01-29T01:43:46.974Z,98.04
2019-01-29T01:46:14.105Z,98.34
2019-01-29T01:48:39.957Z,98.34
2019-01-29T01:51:10.511Z,98.14
2019-01-29T01:53:36.358Z,97.95
2019-01-29T01:56:03.832Z,97.96
2019-01-29T01:58:29.894Z,97.78
2019-01-29T02:00:58.956Z,97.31
2019-01-29T02:03:24.797Z,97.25
2019-01-29T02:05:53.938Z,97.41
2019-01-29T02:08:19.767Z,97.15
2019-01-29T02:10:48.374Z,96.99
2019-01-29T02:13:14.189Z,97.27
2019-01-29T02:15:40.051Z,97.50
2019-01-29T02:18:05.958Z,97.78
2019-01-29T02:20:31.880Z,97.73
2019-01-29T02:23:07.795Z,97.74
2019-01-29T02:25:28.253Z,97.16
2019-01-29T02:27:54.196Z,96.83
2019-01-29T02:30:22.127Z,97.03
2019-01-29T02:32:50.834Z,96.73
2019-01-29T02:35:16.752Z,97.07
2019-01-29T02:37:45.421Z,97.07
2019-01-29T02:40:14.771Z,97.01
2019-01-29T02:42:40.729Z,96.80
2019-01-29T02:45:10.305Z,96.56
2019-01-29T02:47:36.418Z,97.00
2019-01-29T02:50:04.531Z,97.00
2019-01-29T02:52:30.375Z,96.54
2019-01-29T02:54:56.175Z,96.07
2019-01-29T02:57:21.988Z,96.09
2019-01-29T02:59:47.824Z,96.58
2019-01-29T03:02:13.931Z,96.43
2019-01-29T03:04:39.753Z,96.35
2019-01-29T03:07:05.592Z,96.33
2019-01-29T03:09:36.114Z,96.15
2019-01-29T03:12:01.975Z,96.12
2019-01-29T03:14:30.893Z,96.12
2019-01-29T03:16:57.110Z,95.99
2019-01-29T03:19:26.014Z,96.17
2019-01-29T03:21:51.870Z,96.17
2019-01-29T03:24:20.995Z,96.14
2019-01-29T03:26:46.834Z,96.35
2019-01-29T03:29:12.691Z,96.65
2019-01-29T03:31:38.509Z,96.30
2019-01-29T03:34:04.335Z,96.33
2019-01-29T03:36:30.207Z,96.11
2019-01-29T03:38:56.267Z,96.32
2019-01-29T03:41:26.741Z,96.50
2019-01-29T03:43:52.679Z,96.80
2019-01-29T03:46:21.553Z,96.80
2019-01-29T03:48:47.383Z,96.37
2019-01-29T03:51:16.290Z,96.20
2019-01-29T03:53:42.138Z,96.51
2019-01-29T03:56:10.965Z,96.93
2019-01-29T03:58:37.109Z,97.16
2019-01-29T04:01:06.017Z,96.84
2019-01-29T04:03:31.817Z,96.64
2019-01-29T04:05:57.676Z,96.24
2019-01-29T04:08:23.501Z,96.14
2019-01-29T04:10:49.351Z,96.19
2019-01-29T04:13:15.194Z,96.51
2019-01-29T04:15:41.301Z,96.77
2019-01-29T04:18:29.037Z,96.74
2019-01-29T04:20:54.902Z,96.83
2019-01-29T04:23:20.723Z,97.02
2019-01-29T04:25:48.470Z,97.04
2019-01-29T04:28:14.286Z,97.54
2019-01-29T04:30:40.135Z,97.24
2019-01-29T04:33:06.353Z,97.29
2019-01-29T04:35:32.170Z,97.47
2019-01-29T04:37:58.310Z,97.46
2019-01-29T04:40:24.121Z,97.61
2019-01-29T04:42:50.006Z,97.59
2019-01-29T04:45:16.469Z,97.56
2019-01-29T04:47:42.355Z,97.33
2019-01-29T04:50:11.415Z,97.40
2019-01-29T04:52:37.225Z,97.56
2019-01-29T04:55:05.986Z,97.71
2019-01-29T04:57:31.809Z,97.97
2019-01-29T04:59:57.668Z,97.96
2019-01-29T05:02:24.341Z,97.71
2019-01-29T05:04:50.174Z,97.18
2019-01-29T05:07:16.001Z,97.39
2019-01-29T05:09:42.128Z,97.71
2019-01-29T05:12:08.231Z,97.82
2019-01-29T05:14:34.062Z,98.37
2019-01-29T05:17:00.209Z,98.37
2019-01-29T05:19:26.070Z,97.55
2019-01-29T05:21:51.882Z,97.50
2019-01-29T05:24:17.716Z,97.71
2019-01-29T05:26:45.854Z,97.42
2019-01-29T05:29:11.658Z,97.31
2019-01-29T05:31:40.733Z,97.17
2019-01-29T05:34:06.824Z,96.75
2019-01-29T05:36:37.482Z,96.75
2019-01-29T05:39:06.321Z,96.73
2019-01-29T05:41:32.439Z,97.08
2019-01-29T05:43:58.568Z,96.52
2019-01-29T05:46:27.218Z,96.65
2019-01-29T05:48:53.087Z,96.34
2019-01-29T05:51:21.937Z,96.34
2019-01-29T05:53:48.518Z,96.50
2019-01-29T05:56:14.604Z,96.15
2019-01-29T05:58:40.463Z,96.15
2019-01-29T06:01:06.272Z,95.94
2019-01-29T06:03:32.351Z,95.82
2019-01-29T06:05:58.219Z,95.90
2019-01-29T06:08:27.112Z,95.67
2019-01-29T06:10:52.941Z,95.54
2019-01-29T06:13:21.832Z,95.48
2019-01-29T06:15:47.941Z,95.69
2019-01-29T06:18:16.963Z,95.85
2019-01-29T06:20:43.069Z,95.47
2019-01-29T06:23:10.961Z,95.31
2019-01-29T06:25:39.235Z,95.16
2019-01-29T06:28:05.208Z,95.06
2019-01-29T06:30:31.326Z,95.25
2019-01-29T06:32:57.205Z,95.00
2019-01-29T06:35:23.399Z,94.93
2019-01-29T06:37:49.254Z,94.74
2019-01-29T06:40:24.699Z,94.83
2019-01-29T06:42:51.222Z,94.68
2019-01-29T06:45:19.492Z,94.63
2019-01-29T06:47:45.651Z,94.63
2019-01-29T06:50:16.802Z,94.77
2019-01-29T06:52:43.103Z,94.84
2019-01-29T06:55:12.866Z,94.75
2019-01-29T06:57:38.796Z,95.45
2019-01-29T07:00:08.440Z,95.45
2019-01-29T07:02:34.268Z,95.95
2019-01-29T07:05:00.270Z,96.04
2019-01-29T07:07:26.194Z,95.79
2019-01-29T07:09:52.327Z,95.79
2019-01-29T07:12:18.170Z,96.12
2019-01-29T07:14:43.967Z,96.24
2019-01-29T07:17:11.704Z,96.28
2019-01-29T07:19:37.554Z,95.96
2019-01-29T07:22:03.597Z,95.56
2019-01-29T07:24:29.416Z,95.12
2019-01-29T07:26:55.521Z,94.93
2019-01-29T07:29:21.385Z,94.32
2019-01-29T07:31:47.472Z,94.32
2019-01-29T07:34:13.320Z,94.53
2019-01-29T07:36:42.214Z,94.35
2019-01-29T07:39:08.248Z,94.06
2019-01-29T07:41:37.424Z,94.15
2019-01-29T07:44:03.561Z,93.95
2019-01-29T07:46:29.662Z,93.80
2019-01-29T07:48:55.487Z,93.41
2019-01-29T07:51:21.335Z,93.52
2019-01-29T07:53:47.167Z,93.40
2019-01-29T07:56:13.009Z,93.11
2019-01-29T07:58:43.693Z,93.12
2019-01-29T08:01:09.548Z,92.60
2019-01-29T08:03:38.307Z,92.36
2019-01-29T08:06:04.392Z,92.15
2019-01-29T08:08:33.022Z,91.55
2019-01-29T08:10:59.104Z,91.24
2019-01-29T08:13:28.037Z,89.67
2019-01-29T08:15:53.947Z,84.92
2019-01-29T08:18:22.910Z,83.99
2019-01-29T08:20:48.729Z,86.01
2019-01-29T08:23:14.539Z,87.90
2019-01-29T08:25:47.640Z,89.53
2019-01-29T08:28:08.240Z,90.70
2019-01-29T08:30:34.061Z,91.91
2019-01-29T08:32:59.876Z,92.82
2019-01-29T08:35:28.977Z,93.58
2019-01-29T08:37:55.097Z,93.91
2019-01-29T08:40:23.980Z,94.48
2019-01-29T08:42:49.936Z,94.77
2019-01-29T08:45:18.193Z,95.29
2019-01-29T08:47:44.242Z,95.14
2019-01-29T08:50:15.298Z,95.14
2019-01-29T08:52:41.403Z,94.30
2019-01-29T08:55:10.838Z,94.61
2019-01-29T08:57:35.183Z,95.00
2019-01-29T09:00:01.132Z,94.72
2019-01-29T09:02:26.930Z,94.17
2019-01-29T09:04:52.764Z,93.49
2019-01-29T09:07:18.612Z,92.23
2019-01-29T09:09:44.414Z,91.63
2019-01-29T09:12:13.488Z,90.19
2019-01-29T09:14:39.290Z,90.03
2019-01-29T09:17:08.190Z,88.60
2019-01-29T09:19:33.999Z,88.00
2019-01-29T09:22:03.428Z,87.96
2019-01-29T09:24:29.271Z,87.80
2019-01-29T09:26:57.827Z,87.81
2019-01-29T09:29:23.666Z,87.38
2019-01-29T09:31:52.245Z,84.88
2019-01-29T09:34:18.078Z,83.68
2019-01-29T09:36:43.995Z,79.55
2019-01-29T09:39:10.052Z,74.50
2019-01-29T09:41:35.867Z,73.64
2019-01-29T09:44:04.820Z,72.53
2019-01-29T09:46:31.008Z,70.01
2019-01-29T09:49:00.132Z,70.63
2019-01-29T09:51:25.969Z,72.66
2019-01-29T09:53:55.019Z,74.60
2019-01-29T09:56:20.837Z,69.09
2019-01-29T09:58:49.611Z,62.69
2019-01-29T10:01:15.411Z,60.29
2019-01-29T10:03:44.022Z,59.79
2019-01-29T10:06:10.030Z,58.74
2019-01-29T10:08:38.897Z,58.08
2019-01-29T10:11:14.104Z,55.75
2019-01-29T10:13:39.400Z,55.94
2019-01-29T10:16:05.213Z,55.19
2019-01-29T10:18:31.029Z,55.24
2019-01-29T10:20:56.859Z,55.07
2019-01-29T10:23:22.701Z,54.18
2019-01-29T10:25:48.542Z,54.16
2019-01-29T10:28:14.349Z,55.19
2019-01-29T10:30:40.175Z,56.59
2019-01-29T10:33:06.500Z,53.82
2019-01-29T10:35:35.646Z,54.12
2019-01-29T10:38:01.740Z,54.06
2019-01-29T10:40:27.868Z,51.40
2019-01-29T10:42:54.871Z,53.75
2019-01-29T10:45:23.668Z,51.64
2019-01-29T10:47:49.756Z,51.12
2019-01-29T10:50:18.316Z,53.34
2019-01-29T10:52:44.473Z,51.63
2019-01-29T10:55:10.488Z,50.72
2019-01-29T10:57:36.333Z,52.57
2019-01-29T11:00:05.967Z,52.17
2019-01-29T11:02:31.799Z,57.21
2019-01-29T11:04:57.650Z,62.59
2019-01-29T11:07:23.465Z,64.35
2019-01-29T11:09:49.275Z,63.52
2019-01-29T11:12:19.934Z,60.80
2019-01-29T11:14:45.765Z,60.25
2019-01-29T11:17:14.745Z,54.67
2019-01-29T11:19:40.597Z,52.49
2019-01-29T11:22:09.450Z,51.92
2019-01-29T11:24:35.377Z,51.40
2019-01-29T11:27:01.226Z,50.70
2019-01-29T11:29:27.301Z,54.75
2019-01-29T11:31:53.428Z,58.40
2019-01-29T11:34:19.550Z,60.59
2019-01-29T11:36:45.389Z,63.43
2019-01-29T11:39:14.656Z,65.19
2019-01-29T11:41:40.585Z,67.22
2019-01-29T11:44:09.277Z,69.34
2019-01-29T11:46:35.112Z,71.20
2019-01-29T11:49:04.140Z,73.33
2019-01-29T11:51:30.054Z,74.53
2019-01-29T11:53:58.977Z,74.79
2019-01-29T11:56:24.798Z,76.05
2019-01-29T11:58:53.809Z,77.71
2019-01-29T12:01:20.706Z,77.61
2019-01-29T12:03:47.026Z,78.99
2019-01-29T12:06:12.857Z,80.23
2019-01-29T12:08:38.691Z,81.39
2019-01-29T12:11:05.011Z,80.11
2019-01-29T12:13:30.824Z,80.84
2019-01-29T12:16:00.753Z,81.16
2019-01-29T12:18:26.611Z,81.54
2019-01-29T12:20:55.457Z,82.55
2019-01-29T12:23:21.574Z,82.94
2019-01-29T12:25:50.451Z,84.06
2019-01-29T12:28:16.272Z,83.40
2019-01-29T12:30:43.318Z,82.49
2019-01-29T12:33:09.509Z,82.72
2019-01-29T12:35:40.396Z,81.79
2019-01-29T12:38:06.325Z,80.84
2019-01-29T12:40:32.262Z,80.54
2019-01-29T12:42:58.377Z,79.53
2019-01-29T12:45:24.403Z,78.93
2019-01-29T12:47:50.565Z,77.49
2019-01-29T12:50:19.786Z,78.05
2019-01-29T12:52:50.705Z,78.83
2019-01-29T12:55:16.538Z,78.50
2019-01-29T12:57:42.635Z,78.47
2019-01-29T13:00:12.291Z,77.78
2019-01-29T13:02:38.146Z,78.53
2019-01-29T13:05:07.666Z,77.38
2019-01-29T13:07:33.509Z,79.06
2019-01-29T13:09:59.613Z,79.08
2019-01-29T13:12:25.736Z,78.89
2019-01-29T13:14:51.845Z,78.91
2019-01-29T13:17:17.669Z,75.27
2019-01-29T13:19:43.801Z,75.71
2019-01-29T13:22:09.756Z,77.32
2019-01-29T13:24:35.598Z,77.95
2019-01-29T13:27:01.462Z,77.95
2019-01-29T13:29:30.483Z,77.70
2019-01-29T13:31:56.313Z,77.41
2019-01-29T13:34:25.243Z,76.65
2019-01-29T13:36:51.160Z,76.03
2019-01-29T13:39:20.273Z,75.69
2019-01-29T13:41:46.329Z,74.59
2019-01-29T13:44:15.227Z,73.98
2019-01-29T13:46:41.486Z,74.74
2019-01-29T13:49:10.025Z,74.94
2019-01-29T13:51:35.846Z,76.76
2019-01-29T13:54:01.756Z,76.91
2019-01-29T13:56:27.608Z,77.60
2019-01-29T13:58:53.404Z,78.55
2019-01-29T14:01:20.922Z,78.11
2019-01-29T14:03:46.723Z,78.15
2019-01-29T14:06:15.215Z,77.80
2019-01-29T14:08:41.071Z,78.66
2019-01-29T14:11:12.047Z,79.08
2019-01-29T14:13:37.866Z,78.69
2019-01-29T14:16:07.229Z,78.74
2019-01-29T14:18:33.351Z,77.65
2019-01-29T14:20:59.224Z,77.79
2019-01-29T14:23:25.037Z,78.88
2019-01-29T14:25:55.890Z,80.10
2019-01-29T14:28:21.687Z,78.27
2019-01-29T14:30:47.652Z,78.24
2019-01-29T14:33:13.680Z,78.56
2019-01-29T14:35:39.628Z,76.62
2019-01-29T14:38:15.359Z,76.27
2019-01-29T14:40:41.209Z,77.47
2019-01-29T14:43:10.407Z,76.62
2019-01-29T14:45:36.254Z,77.62
2019-01-29T14:48:02.477Z,77.95
2019-01-29T14:50:29.021Z,77.55
2019-01-29T14:52:54.929Z,77.56
2019-01-29T14:55:21.252Z,78.00
2019-01-29T14:57:47.078Z,78.53
2019-01-29T15:00:19.472Z,76.56
2019-01-29T15:02:45.577Z,76.10
2019-01-29T15:05:11.533Z,75.99
2019-01-29T15:07:37.407Z,77.84
2019-01-29T15:10:07.299Z,77.84
2019-01-29T15:12:33.159Z,76.87
2019-01-29T15:14:58.966Z,75.57
2019-01-29T15:17:26.973Z,75.60
2019-01-29T15:19:53.074Z,77.40
2019-01-29T15:22:19.220Z,75.88
2019-01-29T15:24:45.027Z,73.93
2019-01-29T15:27:11.135Z,73.83
2019-01-29T15:29:36.934Z,73.63
2019-01-29T15:32:02.987Z,74.52
2019-01-29T15:34:30.231Z,75.67
2019-01-29T15:36:56.101Z,75.27
2019-01-29T15:39:25.321Z,74.67
2019-01-29T15:41:51.416Z,75.22
2019-01-29T15:44:17.568Z,76.35
2019-01-29T15:46:43.388Z,76.22
2019-01-29T15:49:09.233Z,76.15
2019-01-29T15:51:37.959Z,76.09
2019-01-29T15:54:04.525Z,78.27
2019-01-29T15:56:31.690Z,78.06
2019-01-29T15:58:57.533Z,78.67
2019-01-29T16:01:26.655Z,80.30
2019-01-29T16:03:52.490Z,81.52
2019-01-29T16:06:20.743Z,81.27
2019-01-29T16:08:47.215Z,80.40
2019-01-29T16:11:15.245Z,80.77
2019-01-29T16:13:41.051Z,81.89
2019-01-29T16:16:09.901Z,81.54
2019-01-29T16:18:35.839Z,81.83
2019-01-29T16:21:01.810Z,81.60
2019-01-29T16:23:27.897Z,82.08
2019-01-29T16:25:53.761Z,82.54
2019-01-29T16:28:22.994Z,82.67
2019-01-29T16:30:48.886Z,82.17
2019-01-29T16:33:17.737Z,81.34
2019-01-29T16:35:43.597Z,82.08
2019-01-29T16:38:12.271Z,82.30
2019-01-29T16:40:40.476Z,82.09
2019-01-29T16:43:06.466Z,82.15
2019-01-29T16:45:35.108Z,82.89
2019-01-29T16:48:01.484Z,82.84
2019-01-29T16:50:27.620Z,83.09
2019-01-29T16:52:56.535Z,83.34
2019-01-29T16:55:22.549Z,83.83
2019-01-29T16:57:48.585Z,84.18
2019-01-29T17:00:22.870Z,84.36
2019-01-29T17:02:48.975Z,84.39
2019-01-29T17:05:15.068Z,84.52
2019-01-29T17:07:41.337Z,84.70
2019-01-29T17:10:10.867Z,84.83
2019-01-29T17:12:36.706Z,85.05
2019-01-29T17:15:06.528Z,84.80
2019-01-29T17:17:32.369Z,84.48
2019-01-29T17:19:58.191Z,84.09
2019-01-29T17:22:24.022Z,83.96
2019-01-29T17:24:50.116Z,84.71
2019-01-29T17:27:16.010Z,85.42
2019-01-29T17:29:41.848Z,85.53
2019-01-29T17:32:07.674Z,85.25
2019-01-29T17:34:33.512Z,85.00
2019-01-29T17:36:59.347Z,84.71
2019-01-29T17:39:25.449Z,84.32
2019-01-29T17:41:54.066Z,84.12
2019-01-29T17:44:19.913Z,84.14
2019-01-29T17:46:47.040Z,84.15
2019-01-29T17:49:12.853Z,85.02
2019-01-29T17:51:42.064Z,85.10
2019-01-29T17:54:08.155Z,85.81
2019-01-29T17:56:36.814Z,86.30
2019-01-29T17:59:02.920Z,86.92
2019-01-29T18:01:31.754Z,87.18
2019-01-29T18:03:57.656Z,87.82
2019-01-29T18:06:26.317Z,87.79
2019-01-29T18:08:52.176Z,88.19
2019-01-29T18:11:17.997Z,87.32
2019-01-29T18:13:44.097Z,87.28
2019-01-29T18:16:09.996Z,88.09
2019-01-29T18:18:38.597Z,88.00
2019-01-29T18:21:04.533Z,87.97
2019-01-29T18:23:33.617Z,88.00
2019-01-29T18:25:59.452Z,87.52
2019-01-29T18:28:28.126Z,87.83
2019-01-29T18:30:53.981Z,87.19
2019-01-29T18:33:22.726Z,87.29
2019-01-29T18:35:48.848Z,86.95
2019-01-29T18:38:17.718Z,86.95
2019-01-29T18:40:47.373Z,86.43
2019-01-29T18:43:13.209Z,86.43
2019-01-29T18:45:39.367Z,86.98
2019-01-29T18:48:05.355Z,87.23
2019-01-29T18:50:31.174Z,87.26
2019-01-29T18:52:56.972Z,87.18
2019-01-29T18:55:22.815Z,87.69
2019-01-29T18:57:48.655Z,87.40
2019-01-29T19:00:20.599Z,86.95
2019-01-29T19:02:46.737Z,86.29
2019-01-29T19:05:14.617Z,85.95
2019-01-29T19:07:40.543Z,85.35
2019-01-29T19:10:31.235Z,84.78
2019-01-29T19:12:57.087Z,84.99
2019-01-29T19:15:24.590Z,84.90
2019-01-29T19:17:50.521Z,84.92
2019-01-29T19:20:19.342Z,84.58
2019-01-29T19:22:45.198Z,84.35
2019-01-29T19:25:13.460Z,84.42
2019-01-29T19:27:39.622Z,83.92
2019-01-29T19:30:09.254Z,83.15
2019-01-29T19:32:35.099Z,83.28
2019-01-29T19:35:00.906Z,82.93
2019-01-29T19:37:26.744Z,82.86
2019-01-29T19:39:52.831Z,83.01
2019-01-29T19:42:27.399Z,82.63
2019-01-29T19:44:47.000Z,82.53
2019-01-29T19:47:12.843Z,81.64
2019-01-29T19:49:38.637Z,81.33
2019-01-29T19:52:04.900Z,81.73
2019-01-29T19:54:30.725Z,81.80
2019-01-29T19:56:56.838Z,81.80
2019-01-29T19:59:22.697Z,81.54
2019-01-29T20:01:48.700Z,82.11
2019-01-29T20:04:14.560Z,82.00
2019-01-29T20:06:40.648Z,81.91
2019-01-29T20:09:08.744Z,82.17
2019-01-29T20:11:34.797Z,82.45
2019-01-29T20:14:00.902Z,82.24
2019-01-29T20:16:26.730Z,82.36
2019-01-29T20:18:52.584Z,81.76
2019-01-29T20:21:18.393Z,81.09
2019-01-29T20:23:44.230Z,81.40
2019-01-29T20:26:10.054Z,81.20
2019-01-29T20:28:42.201Z,81.33
2019-01-29T20:31:04.221Z,81.06
2019-01-29T20:33:30.373Z,80.81
2019-01-29T20:35:56.218Z,80.91
2019-01-29T20:38:22.060Z,81.13
2019-01-29T20:40:47.873Z,81.19
2019-01-29T20:43:13.965Z,81.37
2019-01-29T20:45:39.799Z,81.53
2019-01-29T20:48:05.648Z,81.48
2019-01-29T20:50:35.382Z,81.72
2019-01-29T20:53:01.409Z,81.81
2019-01-29T20:55:30.401Z,81.88
2019-01-29T20:57:56.223Z,81.65
2019-01-29T21:00:30.453Z,82.24
2019-01-29T21:02:56.546Z,82.05
2019-01-29T21:05:22.586Z,82.11
2019-01-29T21:07:48.657Z,81.97
2019-01-29T21:10:16.795Z,82.11
2019-01-29T21:12:43.005Z,82.41
2019-01-29T21:15:12.405Z,82.52
2019-01-29T21:17:38.241Z,82.23
2019-01-29T21:20:07.866Z,82.54
2019-01-29T21:22:35.173Z,82.52
2019-01-29T21:25:00.961Z,82.44
2019-01-29T21:27:26.819Z,82.52
2019-01-29T21:29:52.952Z,82.42
2019-01-29T21:32:18.775Z,82.28
2019-01-29T21:34:44.578Z,82.15
2019-01-29T21:37:10.424Z,82.25
2019-01-29T21:39:36.224Z,82.31
2019-01-29T21:42:05.077Z,81.98
2019-01-29T21:44:30.940Z,82.05
2019-01-29T21:46:59.829Z,82.36
2019-01-29T21:49:25.897Z,82.45
2019-01-29T21:51:52.038Z,82.73
2019-01-29T21:54:17.848Z,83.02
2019-01-29T21:56:43.645Z,83.16
2019-01-29T21:59:13.372Z,83.43
2019-01-29T22:01:37.702Z,82.98
2019-01-29T22:04:06.347Z,82.92
2019-01-29T22:06:32.450Z,82.99
2019-01-29T22:09:01.779Z,82.97
2019-01-29T22:11:27.592Z,83.14
2019-01-29T22:13:53.536Z,82.52
2019-01-29T22:16:19.809Z,82.68
2019-01-29T22:18:50.567Z,82.88
2019-01-29T22:21:16.432Z,82.83
2019-01-29T22:23:45.249Z,82.84
2019-01-29T22:26:11.054Z,82.94
2019-01-29T22:28:37.187Z,83.32
2019-01-29T22:31:03.476Z,82.85
2019-01-29T22:33:29.575Z,82.98
2019-01-29T22:35:55.432Z,82.90
2019-01-29T22:38:21.557Z,82.94
2019-01-29T22:40:50.412Z,83.20
2019-01-29T22:43:16.255Z,83.32
2019-01-29T22:45:45.196Z,83.11
2019-01-29T22:48:11.067Z,83.14
2019-01-29T22:50:40.142Z,83.34
2019-01-29T22:53:06.674Z,83.52
2019-01-29T22:55:33.912Z,83.38
2019-01-29T22:58:00.210Z,84.24
2019-01-29T23:00:52.465Z,84.25
2019-01-29T23:03:20.577Z,84.94
2019-01-29T23:05:50.231Z,85.47
2019-01-29T23:08:16.300Z,86.10
2019-01-29T23:10:42.092Z,86.20
2019-01-29T23:13:08.056Z,86.44
2019-01-29T23:15:33.879Z,85.87
2019-01-29T23:17:59.729Z,85.70
2019-01-29T23:20:25.757Z,85.73
2019-01-29T23:22:51.701Z,85.39
2019-01-29T23:25:17.764Z,83.98
2019-01-29T23:27:43.602Z,83.35
2019-01-29T23:30:13.249Z,83.42
2019-01-29T23:32:39.100Z,83.27
2019-01-29T23:35:06.038Z,83.79
2019-01-29T23:37:31.854Z,84.24
2019-01-29T23:39:57.691Z,84.41
2019-01-29T23:42:23.529Z,84.42
2019-01-29T23:44:49.337Z,84.46
2019-01-29T23:47:15.191Z,84.18
2019-01-29T23:49:41.019Z,84.47
2019-01-29T23:52:06.978Z,84.24
2019-01-29T23:54:32.790Z,84.49
2019-01-29T23:56:58.646Z,84.50
2019-01-29T23:59:24.705Z,84.73
